createdAt,value
2022-10-09T00:01:39.579Z,8.71
2022-10-09T00:04:12.921Z,8.71
2022-10-09T00:06:46.682Z,8.73
2022-10-09T00:09:20.176Z,8.69
2022-10-09T00:11:53.618Z,8.61
2022-10-09T00:14:27.141Z,8.44
2022-10-09T00:17:00.450Z,8.35
2022-10-09T00:19:37.436Z,8.28
2022-10-09T00:22:10.412Z,8.23
2022-10-09T00:24:45.373Z,8.19
2022-10-09T00:27:18.365Z,8.28
2022-10-09T00:29:51.518Z,8.27
2022-10-09T00:32:24.129Z,8.25
2022-10-09T00:34:56.875Z,8.24
2022-10-09T00:37:30.023Z,8.24
2022-10-09T00:40:02.693Z,8.25
2022-10-09T00:42:35.821Z,8.23
2022-10-09T00:45:09.323Z,8.20
2022-10-09T00:47:49.967Z,8.20
2022-10-09T00:50:42.423Z,8.21
2022-10-09T00:53:16.164Z,8.21
2022-10-09T00:55:49.270Z,8.22
2022-10-09T00:58:21.794Z,8.17
2022-10-09T01:00:55.964Z,8.25
2022-10-09T01:03:28.800Z,8.22
2022-10-09T01:06:31.643Z,8.20
2022-10-09T01:09:09.311Z,8.14
2022-10-09T01:12:25.551Z,8.04
2022-10-09T01:15:22.250Z,7.87
2022-10-09T01:18:07.528Z,7.77
2022-10-09T01:20:58.733Z,7.74
2022-10-09T01:23:45.434Z,7.74
2022-10-09T01:26:28.098Z,7.68
2022-10-09T01:29:07.259Z,7.57
2022-10-09T01:31:47.451Z,7.56
2022-10-09T01:34:22.935Z,7.61
2022-10-09T01:36:56.396Z,7.69
2022-10-09T01:39:30.835Z,7.74
2022-10-09T01:42:04.136Z,7.72
2022-10-09T01:44:36.564Z,7.69
2022-10-09T01:47:12.111Z,7.69
2022-10-09T01:50:02.712Z,7.64
2022-10-09T01:52:55.339Z,7.54
2022-10-09T01:55:48.517Z,7.49
2022-10-09T01:58:39.173Z,7.38
2022-10-09T02:01:21.729Z,7.29
2022-10-09T02:03:56.586Z,7.23
2022-10-09T02:06:31.706Z,7.21
2022-10-09T02:09:14.797Z,7.23
2022-10-09T02:11:55.143Z,7.22
2022-10-09T02:14:28.869Z,7.29
2022-10-09T02:17:14.787Z,7.33
2022-10-09T02:19:58.366Z,7.36
2022-10-09T02:22:35.635Z,7.38
2022-10-09T02:25:09.391Z,7.38
2022-10-09T02:27:42.534Z,7.39
2022-10-09T02:30:20.110Z,7.34
2022-10-09T02:32:57.404Z,7.34
2022-10-09T02:35:30.490Z,7.28
2022-10-09T02:38:03.221Z,7.27
2022-10-09T02:40:36.180Z,7.27
2022-10-09T02:43:12.617Z,7.28
2022-10-09T02:45:46.106Z,7.25
2022-10-09T02:48:19.280Z,7.19
2022-10-09T02:50:52.346Z,7.15
2022-10-09T02:53:25.396Z,7.07
2022-10-09T02:55:58.499Z,6.92
2022-10-09T02:58:34.776Z,6.95
2022-10-09T03:01:08.466Z,6.92
2022-10-09T03:03:41.756Z,6.91
2022-10-09T03:06:19.481Z,6.95
2022-10-09T03:08:52.734Z,7.04
2022-10-09T03:11:27.218Z,7.05
2022-10-09T03:14:00.042Z,7.07
2022-10-09T03:16:33.795Z,6.95
2022-10-09T03:19:09.656Z,6.93
2022-10-09T03:21:42.397Z,6.99
2022-10-09T03:24:15.768Z,6.96
2022-10-09T03:26:49.126Z,6.92
2022-10-09T03:29:27.605Z,6.90
2022-10-09T03:32:01.028Z,6.90
2022-10-09T03:34:34.921Z,6.90
2022-10-09T03:37:08.519Z,6.93
2022-10-09T03:39:42.805Z,6.95
2022-10-09T03:42:15.658Z,6.97
2022-10-09T03:44:48.674Z,6.99
2022-10-09T03:47:21.975Z,6.99
2022-10-09T03:49:55.699Z,6.95
2022-10-09T03:52:29.173Z,7.00
2022-10-09T03:55:02.664Z,6.99
2022-10-09T03:57:36.213Z,6.98
2022-10-09T04:00:10.085Z,6.95
2022-10-09T04:02:43.473Z,6.92
2022-10-09T04:05:16.563Z,6.89
2022-10-09T04:07:52.790Z,6.88
2022-10-09T04:10:26.024Z,6.88
2022-10-09T04:12:59.521Z,6.89
2022-10-09T04:15:32.913Z,6.91
2022-10-09T04:18:06.425Z,6.94
2022-10-09T04:20:39.183Z,6.97
2022-10-09T04:23:12.993Z,6.99
2022-10-09T04:25:46.293Z,6.97
2022-10-09T04:28:19.945Z,6.93
2022-10-09T04:30:53.714Z,6.99
2022-10-09T04:33:28.369Z,7.05
2022-10-09T04:36:02.231Z,7.06
2022-10-09T04:38:35.582Z,7.06
2022-10-09T04:41:09.493Z,7.05
2022-10-09T04:43:43.551Z,7.00
2022-10-09T04:46:17.608Z,7.06
2022-10-09T04:48:51.334Z,7.07
2022-10-09T04:51:24.659Z,7.05
2022-10-09T04:54:00.729Z,7.12
2022-10-09T04:56:35.286Z,7.09
2022-10-09T04:59:08.477Z,7.15
2022-10-09T05:01:41.366Z,7.17
2022-10-09T05:04:14.800Z,7.22
2022-10-09T05:06:48.320Z,7.28
2022-10-09T05:09:21.689Z,7.33
2022-10-09T05:11:58.039Z,7.29
2022-10-09T05:14:31.156Z,7.45
2022-10-09T05:17:14.202Z,7.50
2022-10-09T05:19:49.818Z,7.50
2022-10-09T05:22:23.207Z,7.57
2022-10-09T05:24:56.826Z,7.61
2022-10-09T05:27:31.547Z,7.74
2022-10-09T05:30:09.437Z,7.88
2022-10-09T05:32:43.249Z,7.99
2022-10-09T05:35:17.160Z,8.11
2022-10-09T05:37:50.422Z,8.23
2022-10-09T05:40:27.087Z,8.29
2022-10-09T05:43:03.798Z,8.40
2022-10-09T05:45:37.057Z,8.49
2022-10-09T05:48:10.359Z,8.63
2022-10-09T05:50:44.290Z,8.71
2022-10-09T05:53:17.888Z,8.81
2022-10-09T05:55:51.712Z,8.91
2022-10-09T05:58:25.165Z,8.94
2022-10-09T06:01:03.242Z,9.04
2022-10-09T06:03:38.123Z,9.21
2022-10-09T06:06:11.798Z,9.36
2022-10-09T06:08:46.311Z,9.53
2022-10-09T06:11:22.690Z,9.69
2022-10-09T06:14:04.503Z,9.86
2022-10-09T06:16:41.138Z,10.06
2022-10-09T06:19:19.141Z,10.20
2022-10-09T06:21:52.347Z,10.45
2022-10-09T06:24:29.226Z,10.61
2022-10-09T06:27:03.766Z,10.76
2022-10-09T06:29:36.519Z,10.93
2022-10-09T06:32:10.258Z,11.08
2022-10-09T06:34:43.739Z,11.26
2022-10-09T06:37:17.532Z,11.42
2022-10-09T06:39:51.356Z,11.61
2022-10-09T06:42:24.940Z,11.74
2022-10-09T06:45:02.541Z,11.87
2022-10-09T06:47:35.749Z,11.95
2022-10-09T06:50:09.657Z,12.09
2022-10-09T06:52:43.199Z,12.22
2022-10-09T06:55:16.665Z,12.31
2022-10-09T06:57:50.126Z,12.45
2022-10-09T07:00:23.421Z,12.48
2022-10-09T07:02:57.306Z,12.55
2022-10-09T07:05:30.502Z,12.56
2022-10-09T07:08:03.897Z,12.53
2022-10-09T07:10:37.356Z,12.47
2022-10-09T07:13:10.717Z,12.56
2022-10-09T07:15:52.658Z,12.62
2022-10-09T07:18:25.716Z,12.58
2022-10-09T07:20:58.878Z,12.68
2022-10-09T07:23:33.007Z,12.80
2022-10-09T07:26:26.234Z,12.90
2022-10-09T07:28:59.947Z,13.01
2022-10-09T07:31:33.678Z,13.15
2022-10-09T07:34:07.111Z,13.29
2022-10-09T07:36:40.224Z,13.41
2022-10-09T07:39:13.527Z,13.51
2022-10-09T07:41:48.039Z,13.57
2022-10-09T07:44:21.412Z,13.67
2022-10-09T07:46:54.657Z,13.69
2022-10-09T07:49:27.666Z,13.77
2022-10-09T07:52:00.755Z,13.91
2022-10-09T07:54:34.709Z,13.99
2022-10-09T07:57:08.266Z,14.05
2022-10-09T07:59:42.754Z,14.11
2022-10-09T08:02:16.011Z,14.17
2022-10-09T08:04:48.557Z,14.23
2022-10-09T08:07:22.022Z,14.35
2022-10-09T08:09:55.339Z,14.44
2022-10-09T08:12:28.599Z,14.50
2022-10-09T08:15:02.101Z,14.56
2022-10-09T08:17:34.715Z,14.62
2022-10-09T08:20:08.309Z,14.69
2022-10-09T08:22:41.438Z,14.67
2022-10-09T08:25:14.890Z,14.85
2022-10-09T08:27:47.686Z,14.93
2022-10-09T08:30:21.081Z,15.05
2022-10-09T08:32:53.998Z,15.15
2022-10-09T08:35:29.970Z,15.23
2022-10-09T08:38:06.787Z,15.27
2022-10-09T08:40:59.086Z,15.27
2022-10-09T08:43:38.230Z,15.30
2022-10-09T08:46:21.622Z,15.32
2022-10-09T08:48:55.863Z,15.31
2022-10-09T08:51:33.357Z,15.25
2022-10-09T08:54:23.747Z,15.31
2022-10-09T08:56:56.860Z,15.32
2022-10-09T08:59:29.742Z,15.40
2022-10-09T09:02:18.921Z,15.41
2022-10-09T09:05:25.125Z,15.41
2022-10-09T09:08:00.396Z,15.40
2022-10-09T09:10:53.527Z,15.31
2022-10-09T09:13:31.498Z,15.38
2022-10-09T09:16:14.163Z,15.46
2022-10-09T09:19:06.600Z,15.49
2022-10-09T09:21:53.591Z,15.65
2022-10-09T09:24:40.572Z,15.75
2022-10-09T09:27:21.514Z,15.81
2022-10-09T09:30:48.361Z,15.91
2022-10-09T09:33:36.254Z,15.98
2022-10-09T09:36:13.611Z,16.03
2022-10-09T09:39:12.869Z,16.09
2022-10-09T09:41:42.429Z,16.20
2022-10-09T09:44:19.366Z,16.25
2022-10-09T09:46:52.425Z,16.31
2022-10-09T09:49:29.210Z,16.41
2022-10-09T09:52:04.402Z,16.50
2022-10-09T09:54:39.864Z,16.59
2022-10-09T09:57:31.134Z,16.69
2022-10-09T10:00:19.206Z,16.78
2022-10-09T10:03:05.389Z,16.88
2022-10-09T10:05:41.084Z,16.94
2022-10-09T10:08:35.238Z,17.06
2022-10-09T10:11:21.049Z,17.10
2022-10-09T10:13:53.617Z,17.19
2022-10-09T10:16:31.106Z,17.32
2022-10-09T10:19:04.696Z,17.37
2022-10-09T10:21:49.731Z,17.44
2022-10-09T10:24:28.242Z,17.60
2022-10-09T10:27:11.707Z,17.71
2022-10-09T10:29:47.432Z,17.79
2022-10-09T10:32:44.412Z,17.81
2022-10-09T10:35:40.728Z,17.84
2022-10-09T10:38:15.544Z,17.92
2022-10-09T10:41:10.749Z,18.08
2022-10-09T10:43:50.672Z,18.14
2022-10-09T10:46:28.843Z,18.24
2022-10-09T10:49:03.059Z,18.33
2022-10-09T10:52:12.836Z,18.40
2022-10-09T10:55:31.269Z,18.49
2022-10-09T10:58:25.091Z,18.57
2022-10-09T11:01:17.345Z,18.61
2022-10-09T11:04:25.357Z,18.67
2022-10-09T11:07:18.732Z,18.70
2022-10-09T11:10:27.646Z,18.70
2022-10-09T11:13:10.257Z,18.78
2022-10-09T11:16:05.770Z,18.83
2022-10-09T11:18:43.104Z,18.89
2022-10-09T11:21:31.430Z,18.90
2022-10-09T11:24:30.301Z,18.93
2022-10-09T11:27:27.586Z,18.96
2022-10-09T11:30:08.145Z,19.04
2022-10-09T11:33:11.370Z,19.04
2022-10-09T11:35:44.997Z,19.03
2022-10-09T11:38:32.352Z,19.09
2022-10-09T11:41:07.389Z,19.12
2022-10-09T11:43:54.148Z,19.13
2022-10-09T11:47:13.399Z,19.15
2022-10-09T11:50:05.343Z,19.21
2022-10-09T11:52:57.626Z,19.30
2022-10-09T11:55:29.971Z,19.35
2022-10-09T11:58:22.886Z,19.48
2022-10-09T12:00:58.459Z,19.65
2022-10-09T12:03:37.809Z,19.82
2022-10-09T12:06:14.919Z,20.01
2022-10-09T12:09:00.779Z,20.16
2022-10-09T12:11:34.613Z,20.35
2022-10-09T12:14:17.096Z,20.51
2022-10-09T12:16:53.786Z,20.65
2022-10-09T12:19:28.614Z,20.72
2022-10-09T12:22:31.686Z,20.69
2022-10-09T12:25:16.930Z,20.63
2022-10-09T12:27:49.817Z,20.62
2022-10-09T12:30:24.433Z,20.53
2022-10-09T12:32:59.195Z,20.50
2022-10-09T12:35:43.888Z,20.46
2022-10-09T12:38:42.691Z,20.54
2022-10-09T12:41:25.471Z,20.53
2022-10-09T12:43:59.412Z,20.47
2022-10-09T12:46:38.981Z,20.45
2022-10-09T12:49:23.578Z,20.46
2022-10-09T12:52:01.447Z,20.45
2022-10-09T12:54:34.887Z,20.54
2022-10-09T12:57:08.125Z,20.58
2022-10-09T12:59:41.421Z,20.63
2022-10-09T13:02:17.520Z,20.52
2022-10-09T13:05:03.612Z,20.47
2022-10-09T13:07:36.287Z,20.44
2022-10-09T13:10:21.437Z,20.41
2022-10-09T13:12:57.458Z,20.27
2022-10-09T13:15:38.594Z,20.20
2022-10-09T13:18:24.597Z,20.25
2022-10-09T13:21:23.679Z,20.18
2022-10-09T13:23:57.217Z,20.28
2022-10-09T13:26:32.336Z,20.39
2022-10-09T13:29:05.295Z,20.45
2022-10-09T13:31:40.203Z,20.37
2022-10-09T13:34:16.791Z,20.31
2022-10-09T13:36:49.227Z,20.28
2022-10-09T13:39:22.276Z,20.18
2022-10-09T13:41:57.981Z,20.17
2022-10-09T13:44:30.654Z,20.16
2022-10-09T13:47:03.688Z,20.02
2022-10-09T13:49:36.494Z,19.87
2022-10-09T13:52:10.928Z,19.86
2022-10-09T13:54:43.707Z,19.73
2022-10-09T13:57:16.753Z,19.58
2022-10-09T13:59:49.489Z,19.45
2022-10-09T14:02:22.306Z,19.26
2022-10-09T14:04:55.271Z,19.05
2022-10-09T14:07:28.638Z,18.85
2022-10-09T14:10:01.505Z,18.71
2022-10-09T14:12:34.478Z,18.53
2022-10-09T14:15:08.148Z,18.45
2022-10-09T14:17:41.309Z,18.25
2022-10-09T14:20:14.097Z,18.13
2022-10-09T14:22:47.191Z,18.00
2022-10-09T14:25:20.431Z,17.79
2022-10-09T14:27:53.411Z,17.46
2022-10-09T14:30:25.947Z,17.35
2022-10-09T14:32:59.173Z,17.10
2022-10-09T14:35:33.212Z,16.88
2022-10-09T14:38:06.186Z,16.86
2022-10-09T14:40:44.436Z,16.72
2022-10-09T14:43:17.374Z,16.71
2022-10-09T14:45:50.961Z,16.59
2022-10-09T14:48:24.363Z,16.46
2022-10-09T14:50:57.126Z,16.43
2022-10-09T14:53:31.050Z,16.42
2022-10-09T14:56:05.390Z,16.34
2022-10-09T14:58:38.849Z,16.25
2022-10-09T15:01:15.373Z,16.16
2022-10-09T15:03:50.756Z,16.07
2022-10-09T15:06:29.176Z,16.07
2022-10-09T15:09:05.706Z,15.96
2022-10-09T15:11:39.442Z,15.99
2022-10-09T15:14:12.357Z,15.99
2022-10-09T15:16:45.975Z,15.94
2022-10-09T15:19:19.374Z,15.82
2022-10-09T15:21:52.245Z,15.75
2022-10-09T15:24:25.307Z,15.71
2022-10-09T15:26:58.271Z,15.75
2022-10-09T15:29:31.211Z,15.68
2022-10-09T15:32:04.229Z,15.63
2022-10-09T15:34:40.757Z,15.55
2022-10-09T15:37:14.138Z,15.49
2022-10-09T15:39:46.813Z,15.44
2022-10-09T15:42:19.611Z,15.39
2022-10-09T15:44:53.027Z,15.32
2022-10-09T15:47:49.359Z,15.28
2022-10-09T15:50:21.227Z,15.33
2022-10-09T15:52:57.224Z,15.31
2022-10-09T15:55:29.917Z,15.28
2022-10-09T15:58:03.004Z,15.23
2022-10-09T16:00:44.149Z,15.16
2022-10-09T16:03:18.565Z,15.09
2022-10-09T16:05:53.377Z,15.05
2022-10-09T16:08:26.370Z,15.04
2022-10-09T16:11:00.049Z,15.03
2022-10-09T16:13:33.925Z,15.04
2022-10-09T16:16:11.282Z,15.03
2022-10-09T16:18:44.502Z,14.97
2022-10-09T16:21:23.232Z,14.94
2022-10-09T16:23:58.982Z,14.91
2022-10-09T16:26:33.743Z,14.82
2022-10-09T16:29:06.736Z,14.81
2022-10-09T16:31:39.861Z,14.82
2022-10-09T16:34:12.842Z,14.85
2022-10-09T16:36:46.541Z,14.78
2022-10-09T16:39:19.367Z,14.73
2022-10-09T16:41:52.037Z,14.66
2022-10-09T16:44:25.369Z,14.66
2022-10-09T16:46:58.886Z,14.74
2022-10-09T16:49:31.768Z,14.83
2022-10-09T16:52:04.838Z,14.93
2022-10-09T16:54:39.514Z,15.01
2022-10-09T16:57:12.802Z,15.08
2022-10-09T16:59:47.390Z,15.17
2022-10-09T17:02:20.311Z,15.15
2022-10-09T17:04:53.472Z,15.19
2022-10-09T17:07:26.202Z,15.19
2022-10-09T17:10:00.637Z,15.21
2022-10-09T17:12:33.210Z,15.17
2022-10-09T17:15:07.518Z,15.06
2022-10-09T17:17:40.566Z,15.00
2022-10-09T17:20:13.458Z,15.01
2022-10-09T17:22:46.676Z,15.03
2022-10-09T17:25:19.697Z,15.02
2022-10-09T17:27:52.118Z,15.00
2022-10-09T17:30:26.893Z,14.95
2022-10-09T17:32:59.826Z,14.87
2022-10-09T17:35:32.602Z,14.87
2022-10-09T17:38:05.475Z,14.74
2022-10-09T17:40:42.595Z,14.68
2022-10-09T17:43:15.477Z,14.66
2022-10-09T17:45:50.616Z,14.58
2022-10-09T17:48:23.724Z,14.46
2022-10-09T17:51:00.443Z,14.43
2022-10-09T17:53:33.759Z,14.39
2022-10-09T17:56:07.229Z,14.33
2022-10-09T17:58:40.069Z,14.26
2022-10-09T18:01:14.651Z,14.22
2022-10-09T18:03:47.633Z,14.15
2022-10-09T18:06:24.236Z,14.17
2022-10-09T18:08:58.343Z,14.11
2022-10-09T18:11:31.617Z,14.03
2022-10-09T18:14:04.387Z,13.97
2022-10-09T18:16:39.179Z,13.88
2022-10-09T18:19:14.989Z,13.88
2022-10-09T18:21:49.691Z,13.84
2022-10-09T18:24:22.628Z,13.82
2022-10-09T18:26:55.488Z,13.78
2022-10-09T18:29:28.264Z,13.74
2022-10-09T18:32:00.874Z,13.67
2022-10-09T18:34:38.315Z,13.65
2022-10-09T18:37:13.867Z,13.62
2022-10-09T18:39:46.833Z,13.60
2022-10-09T18:42:20.149Z,13.60
2022-10-09T18:44:53.212Z,13.53
2022-10-09T18:47:28.686Z,13.55
2022-10-09T18:50:03.690Z,13.52
2022-10-09T18:52:38.776Z,13.51
2022-10-09T18:55:14.696Z,13.50
2022-10-09T18:57:49.023Z,13.46
2022-10-09T19:00:21.900Z,13.42
2022-10-09T19:02:54.502Z,13.42
2022-10-09T19:05:27.455Z,13.48
2022-10-09T19:08:00.393Z,13.45
2022-10-09T19:10:33.219Z,13.44
2022-10-09T19:13:06.162Z,13.31
2022-10-09T19:15:39.043Z,13.36
2022-10-09T19:18:12.032Z,13.43
2022-10-09T19:20:44.802Z,13.44
2022-10-09T19:23:18.194Z,13.35
2022-10-09T19:25:56.562Z,13.48
2022-10-09T19:28:38.546Z,13.51
2022-10-09T19:31:12.511Z,13.54
2022-10-09T19:33:46.407Z,13.45
2022-10-09T19:36:19.487Z,13.48
2022-10-09T19:38:52.519Z,13.56
2022-10-09T19:41:25.538Z,13.65
2022-10-09T19:43:58.528Z,13.63
2022-10-09T19:46:31.737Z,13.62
2022-10-09T19:49:04.642Z,13.69
2022-10-09T19:51:38.658Z,13.69
2022-10-09T19:54:11.913Z,13.68
2022-10-09T19:56:44.789Z,13.69
2022-10-09T19:59:17.613Z,13.69
2022-10-09T20:01:55.184Z,13.70
2022-10-09T20:04:31.743Z,13.66
2022-10-09T20:07:06.101Z,13.69
2022-10-09T20:09:43.790Z,13.71
2022-10-09T20:12:16.735Z,13.69
2022-10-09T20:14:49.705Z,13.67
2022-10-09T20:17:23.451Z,13.57
2022-10-09T20:19:56.615Z,13.51
2022-10-09T20:22:30.155Z,13.55
2022-10-09T20:25:03.737Z,13.47
2022-10-09T20:27:37.342Z,13.41
2022-10-09T20:30:10.760Z,13.34
2022-10-09T20:32:43.725Z,13.26
2022-10-09T20:35:16.827Z,13.16
2022-10-09T20:37:50.053Z,13.02
2022-10-09T20:40:23.206Z,12.94
2022-10-09T20:42:56.165Z,12.89
2022-10-09T20:45:29.217Z,12.84
2022-10-09T20:48:02.795Z,12.77
2022-10-09T20:50:43.273Z,12.74
2022-10-09T20:53:17.467Z,12.70
2022-10-09T20:55:50.805Z,12.65
2022-10-09T20:58:23.707Z,12.59
2022-10-09T21:00:56.593Z,12.57
2022-10-09T21:03:29.291Z,12.55
2022-10-09T21:06:14.542Z,12.49
2022-10-09T21:08:47.757Z,12.52
2022-10-09T21:11:21.917Z,12.50
2022-10-09T21:13:56.190Z,12.48
2022-10-09T21:16:29.776Z,12.41
2022-10-09T21:19:06.407Z,12.33
2022-10-09T21:21:40.377Z,12.31
2022-10-09T21:24:13.557Z,12.25
2022-10-09T21:26:47.432Z,12.20
2022-10-09T21:29:21.515Z,12.17
2022-10-09T21:31:55.023Z,12.14
2022-10-09T21:34:28.520Z,12.13
2022-10-09T21:37:20.417Z,12.08
2022-10-09T21:39:57.401Z,12.06
2022-10-09T21:42:30.443Z,12.07
2022-10-09T21:45:03.695Z,12.05
2022-10-09T21:47:37.175Z,11.99
2022-10-09T21:50:11.521Z,11.92
2022-10-09T21:52:44.728Z,11.90
2022-10-09T21:55:19.155Z,11.88
2022-10-09T21:57:53.487Z,11.87
2022-10-09T22:00:30.096Z,11.85
2022-10-09T22:03:03.031Z,11.85
2022-10-09T22:05:35.909Z,11.86
2022-10-09T22:08:08.858Z,11.84
2022-10-09T22:10:44.214Z,11.84
2022-10-09T22:13:17.350Z,11.86
2022-10-09T22:15:51.391Z,11.83
2022-10-09T22:18:24.397Z,11.70
2022-10-09T22:20:57.592Z,11.80
2022-10-09T22:23:30.776Z,11.84
2022-10-09T22:26:10.083Z,11.90
2022-10-09T22:28:43.676Z,11.91
2022-10-09T22:31:22.827Z,11.91
2022-10-09T22:33:57.086Z,11.83
2022-10-09T22:36:33.955Z,11.84
2022-10-09T22:39:09.284Z,11.75
2022-10-09T22:41:42.475Z,11.63
2022-10-09T22:44:15.583Z,11.54
2022-10-09T22:46:51.733Z,11.56
2022-10-09T22:49:24.719Z,11.49
2022-10-09T22:51:57.544Z,11.49
2022-10-09T22:54:30.168Z,11.48
2022-10-09T22:57:02.433Z,11.44
2022-10-09T22:59:35.106Z,11.51
2022-10-09T23:02:08.404Z,11.55
2022-10-09T23:04:41.265Z,11.59
2022-10-09T23:07:14.237Z,11.64
2022-10-09T23:09:47.803Z,11.66
2022-10-09T23:12:20.960Z,11.68
2022-10-09T23:14:55.168Z,11.72
2022-10-09T23:17:28.127Z,11.78
2022-10-09T23:20:00.911Z,11.81
2022-10-09T23:22:33.709Z,11.78
2022-10-09T23:25:07.322Z,11.66
2022-10-09T23:27:40.167Z,11.58
2022-10-09T23:30:13.002Z,11.59
2022-10-09T23:32:45.876Z,11.51
2022-10-09T23:35:18.866Z,11.41
2022-10-09T23:37:51.386Z,11.36
2022-10-09T23:40:24.367Z,11.38
2022-10-09T23:42:57.115Z,11.35
2022-10-09T23:45:30.265Z,11.29
2022-10-09T23:48:03.193Z,11.19
2022-10-09T23:50:36.639Z,11.21
2022-10-09T23:53:09.555Z,11.16
2022-10-09T23:55:42.495Z,11.12
2022-10-09T23:58:20.560Z,11.08
